createdAt,value
2019-01-19T00:00:48.351Z,1015.60
2019-01-19T00:01:48.337Z,1015.56
2019-01-19T00:02:48.329Z,1015.58
2019-01-19T00:03:48.318Z,1015.55
2019-01-19T00:04:48.315Z,1015.55
2019-01-19T00:05:48.302Z,1015.56
2019-01-19T00:06:49.043Z,1015.56
2019-01-19T00:07:48.275Z,1015.55
2019-01-19T00:08:48.266Z,1015.52
2019-01-19T00:09:48.277Z,1015.57
2019-01-19T00:10:48.243Z,1015.61
2019-01-19T00:11:48.235Z,1015.62
2019-01-19T00:12:48.223Z,1015.52
2019-01-19T00:13:48.210Z,1015.57
2019-01-19T00:14:48.242Z,1015.54
2019-01-19T00:15:48.192Z,1015.60
2019-01-19T00:16:48.225Z,1015.61
2019-01-19T00:17:48.171Z,1015.62
2019-01-19T00:18:48.157Z,1015.57
2019-01-19T00:19:48.151Z,1015.59
2019-01-19T00:20:48.149Z,1015.61
2019-01-19T00:21:48.130Z,1015.58
2019-01-19T00:22:48.119Z,1015.58
2019-01-19T00:23:48.106Z,1015.60
2019-01-19T00:24:48.153Z,1015.62
2019-01-19T00:25:48.097Z,1015.63
2019-01-19T00:26:48.084Z,1015.60
2019-01-19T00:27:48.072Z,1015.57
2019-01-19T00:28:48.056Z,1015.59
2019-01-19T00:29:48.050Z,1015.59
2019-01-19T00:30:48.053Z,1015.56
2019-01-19T00:31:48.030Z,1015.57
2019-01-19T00:32:48.027Z,1015.56
2019-01-19T00:33:48.015Z,1015.58
2019-01-19T00:34:48.012Z,1015.56
2019-01-19T00:35:47.993Z,1015.54
2019-01-19T00:36:47.972Z,1015.56
2019-01-19T00:37:47.960Z,1015.58
2019-01-19T00:38:47.953Z,1015.52
2019-01-19T00:39:47.944Z,1015.55
2019-01-19T00:40:47.940Z,1015.51
2019-01-19T00:41:47.920Z,1015.52
2019-01-19T00:42:47.910Z,1015.54
2019-01-19T00:43:47.898Z,1015.56
2019-01-19T00:44:47.891Z,1015.49
2019-01-19T00:45:47.889Z,1015.48
2019-01-19T00:46:47.865Z,1015.53
2019-01-19T00:47:47.858Z,1015.57
2019-01-19T00:48:47.847Z,1015.51
2019-01-19T00:49:47.838Z,1015.50
2019-01-19T00:50:47.854Z,1015.52
2019-01-19T00:51:47.815Z,1015.52
2019-01-19T00:52:47.806Z,1015.53
2019-01-19T00:53:47.813Z,1015.51
2019-01-19T00:54:47.783Z,1015.51
2019-01-19T00:55:47.787Z,1015.48
2019-01-19T00:56:47.782Z,1015.50
2019-01-19T00:57:47.759Z,1015.48
2019-01-19T00:58:47.753Z,1015.49
2019-01-19T00:59:47.735Z,1015.46
2019-01-19T01:00:47.725Z,1015.49
2019-01-19T01:01:47.747Z,1015.44
2019-01-19T01:02:47.705Z,1015.42
2019-01-19T01:03:47.700Z,1015.45
2019-01-19T01:04:47.683Z,1015.53
2019-01-19T01:05:47.671Z,1015.52
2019-01-19T01:06:47.680Z,1015.54
2019-01-19T01:07:47.650Z,1015.54
2019-01-19T01:08:47.639Z,1015.52
2019-01-19T01:09:47.628Z,1015.56
2019-01-19T01:10:47.620Z,1015.57
2019-01-19T01:11:47.624Z,1015.58
2019-01-19T01:12:47.604Z,1015.65
2019-01-19T01:13:47.608Z,1015.60
2019-01-19T01:14:47.579Z,1015.60
2019-01-19T01:15:47.567Z,1015.61
2019-01-19T01:16:47.574Z,1015.60
2019-01-19T01:17:47.544Z,1015.61
2019-01-19T01:18:47.538Z,1015.62
2019-01-19T01:19:47.530Z,1015.57
2019-01-19T01:20:47.519Z,1015.61
2019-01-19T01:21:47.513Z,1015.67
2019-01-19T01:22:47.509Z,1015.62
2019-01-19T01:23:47.490Z,1015.66
2019-01-19T01:24:47.473Z,1015.64
2019-01-19T01:25:47.459Z,1015.64
2019-01-19T01:26:47.481Z,1015.61
2019-01-19T01:27:47.438Z,1015.66
2019-01-19T01:28:47.432Z,1015.65
2019-01-19T01:29:47.417Z,1015.63
2019-01-19T01:30:47.409Z,1015.66
2019-01-19T01:31:47.397Z,1015.61
2019-01-19T01:32:47.396Z,1015.66
2019-01-19T01:33:47.376Z,1015.66
2019-01-19T01:34:47.365Z,1015.70
2019-01-19T01:35:47.356Z,1015.61
2019-01-19T01:36:47.352Z,1015.64
2019-01-19T01:37:47.357Z,1015.66
2019-01-19T01:38:47.323Z,1015.66
2019-01-19T01:39:47.319Z,1015.66
2019-01-19T01:40:47.302Z,1015.66
2019-01-19T01:41:47.307Z,1015.70
2019-01-19T01:42:47.294Z,1015.67
2019-01-19T01:43:47.281Z,1015.68
2019-01-19T01:44:47.270Z,1015.66
2019-01-19T01:45:47.250Z,1015.64
2019-01-19T01:46:47.237Z,1015.67
2019-01-19T01:47:47.242Z,1015.66
2019-01-19T01:48:47.219Z,1015.67
2019-01-19T01:49:47.213Z,1015.67
2019-01-19T01:50:47.198Z,1015.66
2019-01-19T01:51:47.185Z,1015.69
2019-01-19T01:52:47.190Z,1015.63
2019-01-19T01:53:47.172Z,1015.64
2019-01-19T01:54:47.154Z,1015.66
2019-01-19T01:55:47.146Z,1015.59
2019-01-19T01:56:47.136Z,1015.61
2019-01-19T01:57:47.135Z,1015.59
2019-01-19T01:58:47.113Z,1015.58
2019-01-19T01:59:47.110Z,1015.59
2019-01-19T02:00:47.093Z,1015.59
2019-01-19T02:01:47.124Z,1015.55
2019-01-19T02:02:47.105Z,1015.59
2019-01-19T02:03:47.062Z,1015.58
2019-01-19T02:04:47.054Z,1015.57
2019-01-19T02:05:47.043Z,1015.57
2019-01-19T02:06:47.058Z,1015.60
2019-01-19T02:07:47.037Z,1015.53
2019-01-19T02:08:47.013Z,1015.57
2019-01-19T02:09:48.651Z,1015.56
2019-01-19T02:10:46.990Z,1015.60
2019-01-19T02:11:46.977Z,1015.54
2019-01-19T02:12:47.018Z,1015.52
2019-01-19T02:13:46.957Z,1015.51
2019-01-19T02:14:46.946Z,1015.54
2019-01-19T02:15:46.934Z,1015.54
2019-01-19T02:16:46.930Z,1015.49
2019-01-19T02:17:46.925Z,1015.51
2019-01-19T02:18:46.925Z,1015.50
2019-01-19T02:19:46.895Z,1015.51
2019-01-19T02:20:46.886Z,1015.52
2019-01-19T02:21:46.874Z,1015.48
2019-01-19T02:22:46.866Z,1015.50
2019-01-19T02:23:46.866Z,1015.54
2019-01-19T02:24:46.842Z,1015.48
2019-01-19T02:25:46.833Z,1015.50
2019-01-19T02:26:46.826Z,1015.52
2019-01-19T02:27:46.815Z,1015.57
2019-01-19T02:28:46.815Z,1015.53
2019-01-19T02:29:46.787Z,1015.57
2019-01-19T02:30:46.780Z,1015.54
2019-01-19T02:31:46.771Z,1015.55
2019-01-19T02:32:46.758Z,1015.50
2019-01-19T02:33:46.761Z,1015.52
2019-01-19T02:34:46.741Z,1015.54
2019-01-19T02:35:48.651Z,1015.50
2019-01-19T02:36:46.726Z,1015.50
2019-01-19T02:37:46.708Z,1015.57
2019-01-19T02:38:47.068Z,1015.51
2019-01-19T02:39:46.686Z,1015.55
2019-01-19T02:40:46.680Z,1015.56
2019-01-19T02:41:46.665Z,1015.54
2019-01-19T02:42:46.653Z,1015.52
2019-01-19T02:43:46.657Z,1015.53
2019-01-19T02:44:46.633Z,1015.52
2019-01-19T02:45:46.625Z,1015.54
2019-01-19T02:46:46.613Z,1015.53
2019-01-19T02:47:46.602Z,1015.53
2019-01-19T02:48:46.604Z,1015.57
2019-01-19T02:49:47.585Z,1015.55
2019-01-19T02:50:46.573Z,1015.59
2019-01-19T02:51:46.564Z,1015.57
2019-01-19T02:52:46.547Z,1015.56
2019-01-19T02:53:46.745Z,1015.57
2019-01-19T02:54:46.533Z,1015.60
2019-01-19T02:55:46.518Z,1015.56
2019-01-19T02:56:46.512Z,1015.60
2019-01-19T02:57:46.497Z,1015.53
2019-01-19T02:58:46.487Z,1015.53
2019-01-19T02:59:46.488Z,1015.48
2019-01-19T03:00:46.470Z,1015.53
2019-01-19T03:01:46.455Z,1015.47
2019-01-19T03:02:46.444Z,1015.52
2019-01-19T03:03:46.436Z,1015.50
2019-01-19T03:04:46.444Z,1015.46
2019-01-19T03:05:46.440Z,1015.45
2019-01-19T03:06:46.402Z,1015.45
2019-01-19T03:07:46.415Z,1015.49
2019-01-19T03:08:46.383Z,1015.42
2019-01-19T03:09:46.382Z,1015.44
2019-01-19T03:10:46.362Z,1015.48
2019-01-19T03:11:46.353Z,1015.48
2019-01-19T03:12:46.343Z,1015.41
2019-01-19T03:13:46.328Z,1015.41
2019-01-19T03:14:46.343Z,1015.43
2019-01-19T03:15:46.308Z,1015.41
2019-01-19T03:16:46.299Z,1015.46
2019-01-19T03:17:46.291Z,1015.45
2019-01-19T03:18:46.283Z,1015.44
2019-01-19T03:19:46.281Z,1015.43
2019-01-19T03:20:46.256Z,1015.44
2019-01-19T03:21:46.262Z,1015.47
2019-01-19T03:22:46.237Z,1015.41
2019-01-19T03:23:46.227Z,1015.42
2019-01-19T03:24:46.228Z,1015.42
2019-01-19T03:25:46.247Z,1015.42
2019-01-19T03:26:46.196Z,1015.40
2019-01-19T03:27:46.182Z,1015.39
2019-01-19T03:28:46.171Z,1015.48
2019-01-19T03:29:46.175Z,1015.39
2019-01-19T03:30:46.153Z,1015.48
2019-01-19T03:31:46.169Z,1015.45
2019-01-19T03:32:46.132Z,1015.40
2019-01-19T03:33:46.122Z,1015.43
2019-01-19T03:34:46.123Z,1015.41
2019-01-19T03:35:46.100Z,1015.40
2019-01-19T03:36:46.093Z,1015.40
2019-01-19T03:37:46.082Z,1015.43
2019-01-19T03:38:46.073Z,1015.41
2019-01-19T03:39:46.075Z,1015.40
2019-01-19T03:40:46.050Z,1015.39
2019-01-19T03:41:46.040Z,1015.42
2019-01-19T03:42:46.027Z,1015.43
2019-01-19T03:43:46.020Z,1015.39
2019-01-19T03:44:46.005Z,1015.43
2019-01-19T03:45:46.015Z,1015.44
2019-01-19T03:46:45.986Z,1015.40
2019-01-19T03:47:45.987Z,1015.43
2019-01-19T03:48:45.972Z,1015.42
2019-01-19T03:49:45.955Z,1015.44
2019-01-19T03:50:45.957Z,1015.44
2019-01-19T03:51:45.942Z,1015.48
2019-01-19T03:52:45.925Z,1015.50
2019-01-19T03:53:45.924Z,1015.47
2019-01-19T03:54:45.924Z,1015.51
2019-01-19T03:55:45.902Z,1015.51
2019-01-19T03:56:45.879Z,1015.55
2019-01-19T03:57:45.870Z,1015.50
2019-01-19T03:58:45.863Z,1015.54
2019-01-19T03:59:45.851Z,1015.52
2019-01-19T04:00:45.849Z,1015.48
2019-01-19T04:01:45.828Z,1015.49
2019-01-19T04:02:45.817Z,1015.52
2019-01-19T04:03:45.806Z,1015.47
2019-01-19T04:04:45.813Z,1015.50
2019-01-19T04:05:45.805Z,1015.51
2019-01-19T04:06:45.779Z,1015.52
2019-01-19T04:07:45.767Z,1015.52
2019-01-19T04:08:45.756Z,1015.54
2019-01-19T04:09:45.745Z,1015.50
2019-01-19T04:10:45.761Z,1015.53
2019-01-19T04:11:45.738Z,1015.58
2019-01-19T04:12:45.713Z,1015.52
2019-01-19T04:13:45.708Z,1015.50
2019-01-19T04:14:45.691Z,1015.49
2019-01-19T04:15:45.690Z,1015.53
2019-01-19T04:16:45.700Z,1015.50
2019-01-19T04:17:45.668Z,1015.58
2019-01-19T04:18:45.648Z,1015.56
2019-01-19T04:19:45.659Z,1015.58
2019-01-19T04:20:45.630Z,1015.53
2019-01-19T04:21:45.636Z,1015.59
2019-01-19T04:22:45.615Z,1015.55
2019-01-19T04:23:45.599Z,1015.58
2019-01-19T04:24:45.587Z,1015.57
2019-01-19T04:25:45.578Z,1015.53
2019-01-19T04:26:45.606Z,1015.53
2019-01-19T04:27:45.553Z,1015.50
2019-01-19T04:28:45.559Z,1015.52
2019-01-19T04:29:45.537Z,1015.50
2019-01-19T04:30:45.555Z,1015.57
2019-01-19T04:31:45.532Z,1015.51
2019-01-19T04:32:45.507Z,1015.50
2019-01-19T04:33:45.502Z,1015.47
2019-01-19T04:34:45.486Z,1015.52
2019-01-19T04:35:45.475Z,1015.52
2019-01-19T04:36:45.474Z,1015.54
2019-01-19T04:37:45.454Z,1015.50
2019-01-19T04:38:45.444Z,1015.50
2019-01-19T04:39:45.433Z,1015.48
2019-01-19T04:40:45.418Z,1015.49
2019-01-19T04:41:45.438Z,1015.48
2019-01-19T04:42:45.400Z,1015.48
2019-01-19T04:43:45.388Z,1015.46
2019-01-19T04:44:45.389Z,1015.53
2019-01-19T04:45:45.384Z,1015.49
2019-01-19T04:46:45.358Z,1015.48
2019-01-19T04:47:45.366Z,1015.51
2019-01-19T04:48:45.338Z,1015.51
2019-01-19T04:49:45.327Z,1015.53
2019-01-19T04:50:45.330Z,1015.59
2019-01-19T04:51:45.313Z,1015.54
2019-01-19T04:52:45.313Z,1015.57
2019-01-19T04:53:45.294Z,1015.58
2019-01-19T04:54:45.276Z,1015.54
2019-01-19T04:55:45.267Z,1015.60
2019-01-19T04:56:45.254Z,1015.55
2019-01-19T04:57:45.256Z,1015.54
2019-01-19T04:58:45.231Z,1015.56
2019-01-19T04:59:45.252Z,1015.57
2019-01-19T05:00:45.212Z,1015.62
2019-01-19T05:01:45.200Z,1015.60
2019-01-19T05:02:45.205Z,1015.60
2019-01-19T05:03:45.182Z,1015.61
2019-01-19T05:04:45.171Z,1015.57
2019-01-19T05:05:45.158Z,1015.55
2019-01-19T05:06:45.147Z,1015.52
2019-01-19T05:07:45.148Z,1015.55
2019-01-19T05:08:45.128Z,1015.51
2019-01-19T05:09:45.126Z,1015.50
2019-01-19T05:10:45.108Z,1015.47
2019-01-19T05:11:45.096Z,1015.47
2019-01-19T05:12:45.097Z,1015.41
2019-01-19T05:13:45.076Z,1015.41
2019-01-19T05:14:45.068Z,1015.47
2019-01-19T05:15:45.061Z,1015.44
2019-01-19T05:16:45.057Z,1015.42
2019-01-19T05:17:45.048Z,1015.41
2019-01-19T05:18:45.026Z,1015.43
2019-01-19T05:19:45.014Z,1015.43
2019-01-19T05:20:45.003Z,1015.44
2019-01-19T05:21:44.995Z,1015.44
2019-01-19T05:22:45.002Z,1015.44
2019-01-19T05:23:44.978Z,1015.43
2019-01-19T05:24:44.961Z,1015.43
2019-01-19T05:25:44.947Z,1015.41
2019-01-19T05:26:44.943Z,1015.41
2019-01-19T05:27:44.944Z,1015.43
2019-01-19T05:28:44.920Z,1015.42
2019-01-19T05:29:44.913Z,1015.46
2019-01-19T05:30:44.898Z,1015.47
2019-01-19T05:31:44.890Z,1015.44
2019-01-19T05:32:44.883Z,1015.47
2019-01-19T05:33:44.895Z,1015.43
2019-01-19T05:34:44.854Z,1015.46
2019-01-19T05:35:44.848Z,1015.43
2019-01-19T05:36:44.834Z,1015.43
2019-01-19T05:37:44.848Z,1015.45
2019-01-19T05:38:44.834Z,1015.47
2019-01-19T05:39:44.803Z,1015.46
2019-01-19T05:40:44.789Z,1015.44
2019-01-19T05:41:44.782Z,1015.45
2019-01-19T05:42:44.774Z,1015.44
2019-01-19T05:43:44.773Z,1015.43
2019-01-19T05:44:44.936Z,1015.46
2019-01-19T05:45:44.744Z,1015.42
2019-01-19T05:46:44.728Z,1015.37
2019-01-19T05:47:44.718Z,1015.38
2019-01-19T05:48:44.722Z,1015.39
2019-01-19T05:49:44.696Z,1015.44
2019-01-19T05:50:44.688Z,1015.43
2019-01-19T05:51:44.676Z,1015.44
2019-01-19T05:52:44.666Z,1015.48
2019-01-19T05:53:44.664Z,1015.46
2019-01-19T05:54:44.642Z,1015.47
2019-01-19T05:55:44.632Z,1015.47
2019-01-19T05:56:44.631Z,1015.47
2019-01-19T05:57:44.617Z,1015.49
2019-01-19T05:58:44.617Z,1015.47
2019-01-19T05:59:44.588Z,1015.50
2019-01-19T06:00:44.577Z,1015.51
2019-01-19T06:01:44.573Z,1015.51
2019-01-19T06:02:44.564Z,1015.50
2019-01-19T06:03:44.558Z,1015.50
2019-01-19T06:04:44.537Z,1015.50
2019-01-19T06:05:44.528Z,1015.50
2019-01-19T06:06:46.989Z,1015.48
2019-01-19T06:07:44.507Z,1015.49
2019-01-19T06:08:44.513Z,1015.50
2019-01-19T06:09:44.489Z,1015.46
2019-01-19T06:10:44.478Z,1015.52
2019-01-19T06:11:44.462Z,1015.49
2019-01-19T06:12:44.450Z,1015.53
2019-01-19T06:13:44.454Z,1015.51
2019-01-19T06:14:44.435Z,1015.59
2019-01-19T06:15:44.422Z,1015.58
2019-01-19T06:16:44.423Z,1015.59
2019-01-19T06:17:44.403Z,1015.61
2019-01-19T06:18:44.403Z,1015.61
2019-01-19T06:19:44.383Z,1015.59
2019-01-19T06:20:44.370Z,1015.63
2019-01-19T06:21:44.392Z,1015.61
2019-01-19T06:22:44.371Z,1015.59
2019-01-19T06:23:44.352Z,1015.60
2019-01-19T06:24:44.341Z,1015.61
2019-01-19T06:25:44.336Z,1015.61
2019-01-19T06:26:44.334Z,1015.64
2019-01-19T06:27:44.303Z,1015.62
2019-01-19T06:28:44.303Z,1015.64
2019-01-19T06:29:44.279Z,1015.61
2019-01-19T06:30:44.273Z,1015.65
2019-01-19T06:31:44.266Z,1015.63
2019-01-19T06:32:44.255Z,1015.61
2019-01-19T06:33:44.250Z,1015.66
2019-01-19T06:34:44.222Z,1015.63
2019-01-19T06:35:44.209Z,1015.63
2019-01-19T06:36:44.203Z,1015.61
2019-01-19T06:37:44.199Z,1015.59
2019-01-19T06:38:44.194Z,1015.60
2019-01-19T06:39:44.168Z,1015.58
2019-01-19T06:40:44.157Z,1015.57
2019-01-19T06:41:44.147Z,1015.59
2019-01-19T06:42:44.138Z,1015.58
2019-01-19T06:43:44.138Z,1015.57
2019-01-19T06:44:44.120Z,1015.61
2019-01-19T06:45:44.103Z,1015.64
2019-01-19T06:46:44.097Z,1015.59
2019-01-19T06:47:44.085Z,1015.63
2019-01-19T06:48:44.114Z,1015.62
2019-01-19T06:49:44.068Z,1015.60
2019-01-19T06:50:44.054Z,1015.63
2019-01-19T06:51:44.041Z,1015.66
2019-01-19T06:52:44.030Z,1015.64
2019-01-19T06:53:44.025Z,1015.63
2019-01-19T06:54:44.021Z,1015.69
2019-01-19T06:55:44.002Z,1015.68
2019-01-19T06:56:43.988Z,1015.68
2019-01-19T06:57:43.977Z,1015.66
2019-01-19T06:58:43.969Z,1015.66
2019-01-19T06:59:43.967Z,1015.66
2019-01-19T07:00:43.945Z,1015.63
2019-01-19T07:01:43.958Z,1015.68
2019-01-19T07:02:43.929Z,1015.70
2019-01-19T07:03:43.914Z,1015.68
2019-01-19T07:04:43.927Z,1015.67
2019-01-19T07:05:43.893Z,1015.69
2019-01-19T07:06:43.885Z,1015.68
2019-01-19T07:07:43.872Z,1015.69
2019-01-19T07:08:43.863Z,1015.69
2019-01-19T07:09:43.860Z,1015.75
2019-01-19T07:10:43.845Z,1015.83
2019-01-19T07:11:43.831Z,1015.81
2019-01-19T07:12:43.822Z,1015.78
2019-01-19T07:13:43.821Z,1015.84
2019-01-19T07:14:43.810Z,1015.86
2019-01-19T07:15:43.788Z,1015.85
2019-01-19T07:16:43.787Z,1015.83
2019-01-19T07:17:43.767Z,1015.77
2019-01-19T07:18:43.755Z,1015.88
2019-01-19T07:19:43.758Z,1015.87
2019-01-19T07:20:43.739Z,1015.83
2019-01-19T07:21:43.724Z,1015.86
2019-01-19T07:22:43.718Z,1015.88
2019-01-19T07:23:43.707Z,1015.88
2019-01-19T07:24:43.707Z,1015.84
2019-01-19T07:25:43.689Z,1015.89
2019-01-19T07:26:43.671Z,1015.88
2019-01-19T07:27:43.658Z,1015.90
2019-01-19T07:28:43.650Z,1015.87
2019-01-19T07:29:43.653Z,1015.94
2019-01-19T07:30:43.633Z,1015.94
2019-01-19T07:31:43.616Z,1015.91
2019-01-19T07:32:43.664Z,1015.97
2019-01-19T07:33:43.604Z,1015.90
2019-01-19T07:34:43.598Z,1015.90
2019-01-19T07:35:43.579Z,1015.91
2019-01-19T07:36:43.577Z,1015.92
2019-01-19T07:37:43.578Z,1015.95
2019-01-19T07:38:43.543Z,1015.95
2019-01-19T07:39:43.544Z,1015.93
2019-01-19T07:40:43.523Z,1016.03
2019-01-19T07:41:43.514Z,1015.97
2019-01-19T07:42:43.514Z,1015.94
2019-01-19T07:43:43.493Z,1015.93
2019-01-19T07:44:43.491Z,1015.99
2019-01-19T07:45:43.473Z,1015.99
2019-01-19T07:46:43.458Z,1015.99
2019-01-19T07:47:43.453Z,1015.96
2019-01-19T07:48:43.440Z,1016.00
2019-01-19T07:49:43.445Z,1015.98
2019-01-19T07:50:43.419Z,1016.03
2019-01-19T07:51:43.406Z,1015.99
2019-01-19T07:52:43.399Z,1015.99
2019-01-19T07:53:43.385Z,1016.00
2019-01-19T07:54:43.401Z,1016.07
2019-01-19T07:55:43.370Z,1016.06
2019-01-19T07:56:43.375Z,1016.06
2019-01-19T07:57:43.347Z,1016.07
2019-01-19T07:58:43.363Z,1016.09
2019-01-19T07:59:43.335Z,1016.09
2019-01-19T08:00:43.323Z,1016.06
2019-01-19T08:01:43.303Z,1016.11
2019-01-19T08:02:43.289Z,1016.10
2019-01-19T08:03:43.285Z,1016.10
2019-01-19T08:04:43.300Z,1016.12
2019-01-19T08:05:43.265Z,1016.13
2019-01-19T08:06:43.248Z,1016.12
2019-01-19T08:07:43.235Z,1016.08
2019-01-19T08:08:43.226Z,1016.10
2019-01-19T08:09:43.285Z,1016.05
2019-01-19T08:10:43.207Z,1016.07
2019-01-19T08:11:43.197Z,1016.11
2019-01-19T08:12:43.187Z,1016.13
2019-01-19T08:13:43.174Z,1016.08
2019-01-19T08:14:43.164Z,1016.10
2019-01-19T08:15:43.241Z,1016.07
2019-01-19T08:16:43.143Z,1016.07
2019-01-19T08:17:43.149Z,1016.13
2019-01-19T08:18:43.125Z,1016.10
2019-01-19T08:19:43.112Z,1016.12
2019-01-19T08:20:43.127Z,1016.16
2019-01-19T08:21:43.091Z,1016.15
2019-01-19T08:22:43.083Z,1016.16
2019-01-19T08:23:43.068Z,1016.20
2019-01-19T08:24:43.059Z,1016.14
2019-01-19T08:25:43.060Z,1016.20
2019-01-19T08:26:43.037Z,1016.18
2019-01-19T08:27:43.032Z,1016.21
2019-01-19T08:28:43.022Z,1016.20
2019-01-19T08:29:43.004Z,1016.22
2019-01-19T08:30:43.005Z,1016.18
2019-01-19T08:31:43.035Z,1016.22
2019-01-19T08:32:42.982Z,1016.24
2019-01-19T08:33:42.966Z,1016.25
2019-01-19T08:34:42.955Z,1016.23
2019-01-19T08:35:42.966Z,1016.23
2019-01-19T08:36:42.935Z,1016.24
2019-01-19T08:37:42.939Z,1016.22
2019-01-19T08:38:42.975Z,1016.31
2019-01-19T08:39:42.907Z,1016.31
2019-01-19T08:40:42.900Z,1016.26
2019-01-19T08:41:42.885Z,1016.33
2019-01-19T08:42:42.872Z,1016.31
2019-01-19T08:43:42.858Z,1016.31
2019-01-19T08:44:42.856Z,1016.32
2019-01-19T08:45:42.868Z,1016.28
2019-01-19T08:46:42.831Z,1016.35
2019-01-19T08:47:42.818Z,1016.30
2019-01-19T08:48:42.807Z,1016.28
2019-01-19T08:49:42.797Z,1016.25
2019-01-19T08:50:42.804Z,1016.24
2019-01-19T08:51:42.792Z,1016.27
2019-01-19T08:52:42.775Z,1016.30
2019-01-19T08:53:42.760Z,1016.31
2019-01-19T08:54:42.747Z,1016.32
2019-01-19T08:55:42.742Z,1016.29
2019-01-19T08:56:42.728Z,1016.31
2019-01-19T08:57:42.717Z,1016.28
2019-01-19T08:58:42.715Z,1016.32
2019-01-19T08:59:42.689Z,1016.31
2019-01-19T09:00:42.692Z,1016.32
2019-01-19T09:01:42.676Z,1016.33
2019-01-19T09:02:42.659Z,1016.31
2019-01-19T09:03:42.649Z,1016.29
2019-01-19T09:04:42.637Z,1016.29
2019-01-19T09:05:42.637Z,1016.30
2019-01-19T09:06:42.616Z,1016.30
2019-01-19T09:07:42.608Z,1016.32
2019-01-19T09:08:42.595Z,1016.33
2019-01-19T09:09:42.591Z,1016.32
2019-01-19T09:10:42.582Z,1016.33
2019-01-19T09:11:42.561Z,1016.32
2019-01-19T09:12:43.083Z,1016.33
2019-01-19T09:13:42.544Z,1016.33
2019-01-19T09:14:42.540Z,1016.30
2019-01-19T09:15:42.534Z,1016.28
2019-01-19T09:16:42.509Z,1016.28
2019-01-19T09:17:42.498Z,1016.34
2019-01-19T09:18:42.488Z,1016.28
2019-01-19T09:19:42.483Z,1016.29
2019-01-19T09:20:42.500Z,1016.29
2019-01-19T09:21:42.459Z,1016.31
2019-01-19T09:22:42.445Z,1016.31
2019-01-19T09:23:42.442Z,1016.31
2019-01-19T09:24:42.424Z,1016.33
2019-01-19T09:25:42.414Z,1016.35
2019-01-19T09:26:42.417Z,1016.30
2019-01-19T09:27:42.393Z,1016.27
2019-01-19T09:28:42.383Z,1016.27
2019-01-19T09:29:42.371Z,1016.27
2019-01-19T09:30:42.367Z,1016.27
2019-01-19T09:31:42.363Z,1016.29
2019-01-19T09:32:42.348Z,1016.29
2019-01-19T09:33:42.387Z,1016.27
2019-01-19T09:34:42.321Z,1016.28
2019-01-19T09:35:42.307Z,1016.26
2019-01-19T09:36:42.316Z,1016.25
2019-01-19T09:37:42.289Z,1016.24
2019-01-19T09:38:42.275Z,1016.23
2019-01-19T09:39:42.267Z,1016.25
2019-01-19T09:40:42.255Z,1016.25
2019-01-19T09:41:42.259Z,1016.27
2019-01-19T09:42:42.235Z,1016.27
2019-01-19T09:43:42.223Z,1016.27
2019-01-19T09:44:42.212Z,1016.30
2019-01-19T09:45:42.218Z,1016.22
2019-01-19T09:46:42.202Z,1016.28
2019-01-19T09:47:42.180Z,1016.26
2019-01-19T09:48:42.176Z,1016.20
2019-01-19T09:49:42.160Z,1016.23
2019-01-19T09:50:42.153Z,1016.24
2019-01-19T09:51:42.161Z,1016.23
2019-01-19T09:52:42.131Z,1016.19
2019-01-19T09:53:42.118Z,1016.20
2019-01-19T09:54:42.109Z,1016.22
2019-01-19T09:55:42.102Z,1016.20
2019-01-19T09:56:42.120Z,1016.20
2019-01-19T09:57:42.083Z,1016.22
2019-01-19T09:58:42.064Z,1016.21
2019-01-19T09:59:42.056Z,1016.18
2019-01-19T10:00:45.741Z,1016.19
2019-01-19T10:01:42.045Z,1016.19
2019-01-19T10:02:42.057Z,1016.23
2019-01-19T10:03:42.060Z,1016.17
2019-01-19T10:04:41.999Z,1016.25
2019-01-19T10:05:42.005Z,1016.24
2019-01-19T10:06:41.997Z,1016.22
2019-01-19T10:07:48.223Z,1016.23
2019-01-19T10:08:42.960Z,1016.19
2019-01-19T10:09:41.949Z,1016.20
2019-01-19T10:10:41.938Z,1016.22
2019-01-19T10:11:41.942Z,1016.21
2019-01-19T10:12:41.926Z,1016.23
2019-01-19T10:13:41.914Z,1016.20
2019-01-19T10:14:41.903Z,1016.17
2019-01-19T10:15:41.923Z,1016.19
2019-01-19T10:16:41.896Z,1016.21
2019-01-19T10:17:41.865Z,1016.19
2019-01-19T10:18:41.856Z,1016.20
2019-01-19T10:19:41.850Z,1016.19
2019-01-19T10:20:41.842Z,1016.20
2019-01-19T10:21:41.838Z,1016.22
2019-01-19T10:22:41.818Z,1016.20
2019-01-19T10:23:41.803Z,1016.13
2019-01-19T10:24:41.801Z,1016.16
2019-01-19T10:25:41.804Z,1016.15
2019-01-19T10:26:41.786Z,1016.13
2019-01-19T10:27:41.765Z,1016.17
2019-01-19T10:28:41.754Z,1016.15
2019-01-19T10:29:41.741Z,1016.15
2019-01-19T10:30:41.743Z,1016.10
2019-01-19T10:31:41.739Z,1016.14
2019-01-19T10:32:41.713Z,1016.14
2019-01-19T10:33:41.700Z,1016.13
2019-01-19T10:34:41.693Z,1016.09
2019-01-19T10:35:41.680Z,1016.11
2019-01-19T10:36:41.680Z,1016.09
2019-01-19T10:37:41.656Z,1016.10
2019-01-19T10:38:41.649Z,1016.05
2019-01-19T10:39:41.633Z,1016.10
2019-01-19T10:40:41.647Z,1016.05
2019-01-19T10:41:41.645Z,1016.05
2019-01-19T10:42:41.737Z,1016.10
2019-01-19T10:43:41.595Z,1016.04
2019-01-19T10:44:41.582Z,1016.05
2019-01-19T10:45:41.571Z,1016.03
2019-01-19T10:46:41.558Z,1016.00
2019-01-19T10:47:41.566Z,1016.00
2019-01-19T10:48:41.547Z,1015.98
2019-01-19T10:49:41.534Z,1016.01
2019-01-19T10:50:41.524Z,1015.99
2019-01-19T10:51:41.508Z,1015.95
2019-01-19T10:52:41.510Z,1015.97
2019-01-19T10:53:41.489Z,1015.97
2019-01-19T10:54:41.483Z,1016.01
2019-01-19T10:55:41.471Z,1015.99
2019-01-19T10:56:41.456Z,1016.00
2019-01-19T10:57:41.455Z,1015.96
2019-01-19T10:58:41.445Z,1015.95
2019-01-19T10:59:41.427Z,1015.97
2019-01-19T11:00:41.416Z,1015.97
2019-01-19T11:01:41.402Z,1015.94
2019-01-19T11:02:41.405Z,1015.96
2019-01-19T11:03:41.392Z,1015.91
2019-01-19T11:04:41.375Z,1015.97
2019-01-19T11:05:41.365Z,1015.91
2019-01-19T11:06:41.353Z,1015.92
2019-01-19T11:07:41.353Z,1015.92
2019-01-19T11:08:41.327Z,1015.90
2019-01-19T11:09:41.319Z,1015.92
2019-01-19T11:10:41.313Z,1015.90
2019-01-19T11:11:41.307Z,1015.92
2019-01-19T11:12:41.313Z,1015.86
2019-01-19T11:13:41.278Z,1015.92
2019-01-19T11:14:41.270Z,1015.93
2019-01-19T11:15:41.256Z,1015.92
2019-01-19T11:16:41.247Z,1015.91
2019-01-19T11:17:41.254Z,1015.90
2019-01-19T11:18:41.232Z,1015.92
2019-01-19T11:19:41.215Z,1015.88
2019-01-19T11:20:41.205Z,1015.88
2019-01-19T11:21:41.191Z,1015.83
2019-01-19T11:22:41.245Z,1015.87
2019-01-19T11:23:41.188Z,1015.86
2019-01-19T11:24:41.159Z,1015.82
2019-01-19T11:25:41.155Z,1015.84
2019-01-19T11:26:41.143Z,1015.87
2019-01-19T11:27:41.146Z,1015.84
2019-01-19T11:28:41.129Z,1015.82
2019-01-19T11:29:41.107Z,1015.81
2019-01-19T11:30:41.095Z,1015.83
2019-01-19T11:31:41.084Z,1015.81
2019-01-19T11:32:44.529Z,1015.79
2019-01-19T11:33:41.064Z,1015.78
2019-01-19T11:34:41.054Z,1015.78
2019-01-19T11:35:41.045Z,1015.77
2019-01-19T11:36:41.033Z,1015.70
2019-01-19T11:37:41.034Z,1015.68
2019-01-19T11:38:41.012Z,1015.71
2019-01-19T11:39:41.038Z,1015.64
2019-01-19T11:40:40.994Z,1015.64
2019-01-19T11:41:40.985Z,1015.61
2019-01-19T11:42:40.987Z,1015.63
2019-01-19T11:43:40.959Z,1015.59
2019-01-19T11:44:40.949Z,1015.61
2019-01-19T11:45:40.939Z,1015.59
2019-01-19T11:46:40.982Z,1015.60
2019-01-19T11:47:40.933Z,1015.59
2019-01-19T11:48:40.906Z,1015.56
2019-01-19T11:49:40.892Z,1015.58
2019-01-19T11:50:40.883Z,1015.56
2019-01-19T11:51:40.879Z,1015.52
2019-01-19T11:52:40.880Z,1015.53
2019-01-19T11:53:40.854Z,1015.51
2019-01-19T11:54:40.844Z,1015.51
2019-01-19T11:55:40.840Z,1015.50
2019-01-19T11:56:40.822Z,1015.50
2019-01-19T11:57:40.810Z,1015.50
2019-01-19T11:58:40.811Z,1015.43
2019-01-19T11:59:40.791Z,1015.47
2019-01-19T12:00:40.780Z,1015.42
2019-01-19T12:01:40.783Z,1015.48
2019-01-19T12:02:40.763Z,1015.48
2019-01-19T12:03:40.759Z,1015.44
2019-01-19T12:04:40.742Z,1015.43
2019-01-19T12:05:40.756Z,1015.37